aviador You're here:

LKTB Decoded Metar

TURANY in CZECH REPUBLIC
Report Time2018-07-21 08:00:00
UTC Time2018-07-21 08:12:30
Flight Rules vfr VFR
Wind070° at 05 kt
W.Decomp.*RWY 09: 4.6 kt HW 2 kt LCW
RWY 10: 4.2 kt HW 2.7 kt LCW
W.Rank070° ranks 1
Current wind is below 070° avg. (7.1)
Visibility9999 m
Phenomena:N/A
Clouds:N/A
Expected CloudBase > 4,800 ft AGL from Temp-Dew spread
CeilingNone
Temp26°C (ISA +13)
Dew Point14°C (48% RH)
AAT25.5°C
QNH1013 hPa
Density Alt2,477 ft
Elevation807 ft
Report Wrong Elevation
Raw Report
LKTB 210800Z 07005KT 010V110 CAVOK 26/14 Q1013 NOSIG=

Extra information for LKTB:More info

Metar Taf Metar & Taf Last 4 Metars F.Rules Stats Wind Profile Meteogram Temp Stats Airport Information Weather charts Add Link Nearby VenuesMetar ALERT Operation Metar Decoded Social comments